createdAt,value
2022-09-28T00:02:05.683Z,7.55
2022-09-28T00:04:35.458Z,7.55
2022-09-28T00:07:04.917Z,7.58
2022-09-28T00:09:34.836Z,7.60
2022-09-28T00:12:04.218Z,7.57
2022-09-28T00:14:34.066Z,7.57
2022-09-28T00:17:03.690Z,7.57
2022-09-28T00:19:33.039Z,7.58
2022-09-28T00:22:02.544Z,7.57
2022-09-28T00:24:31.796Z,7.57
2022-09-28T00:27:02.747Z,7.57
2022-09-28T00:29:36.557Z,7.57
2022-09-28T00:32:08.704Z,7.54
2022-09-28T00:34:41.179Z,7.55
2022-09-28T00:37:11.188Z,7.55
2022-09-28T00:39:41.435Z,7.54
2022-09-28T00:42:13.852Z,7.54
2022-09-28T00:44:53.877Z,7.52
2022-09-28T00:47:29.373Z,7.52
2022-09-28T00:50:01.747Z,7.49
2022-09-28T00:52:37.233Z,7.45
2022-09-28T00:55:09.908Z,7.43
2022-09-28T00:57:40.976Z,7.43
2022-09-28T01:00:11.623Z,7.38
2022-09-28T01:02:41.690Z,7.34
2022-09-28T01:05:11.678Z,7.34
2022-09-28T01:07:41.965Z,7.33
2022-09-28T01:10:11.513Z,7.29
2022-09-28T01:12:40.937Z,7.22
2022-09-28T01:15:11.642Z,7.19
2022-09-28T01:17:53.595Z,7.15
2022-09-28T01:20:46.000Z,7.15
2022-09-28T01:23:27.669Z,7.21
2022-09-28T01:26:18.618Z,7.20
2022-09-28T01:28:49.269Z,7.28
2022-09-28T01:31:19.710Z,7.35
2022-09-28T01:33:52.242Z,7.33
2022-09-28T01:36:26.192Z,7.37
2022-09-28T01:39:02.162Z,7.34
2022-09-28T01:41:32.815Z,7.34
2022-09-28T01:44:03.789Z,7.45
2022-09-28T01:46:38.941Z,7.46
2022-09-28T01:49:10.907Z,7.55
2022-09-28T01:51:48.959Z,7.53
2022-09-28T01:54:33.321Z,7.58
2022-09-28T01:57:09.782Z,7.57
2022-09-28T01:59:41.960Z,7.59
2022-09-28T02:02:18.869Z,7.57
2022-09-28T02:04:54.536Z,7.61
2022-09-28T02:07:37.276Z,7.65
2022-09-28T02:10:16.023Z,7.60
2022-09-28T02:12:51.693Z,7.69
2022-09-28T02:15:27.751Z,7.71
2022-09-28T02:17:57.226Z,7.75
2022-09-28T02:20:26.732Z,7.77
2022-09-28T02:22:57.256Z,7.73
2022-09-28T02:25:35.954Z,7.75
2022-09-28T02:28:07.706Z,7.77
2022-09-28T02:30:39.297Z,7.79
2022-09-28T02:33:17.588Z,7.76
2022-09-28T02:35:47.372Z,7.80
2022-09-28T02:38:17.985Z,7.80
2022-09-28T02:40:50.922Z,7.78
2022-09-28T02:43:26.042Z,7.76
2022-09-28T02:46:04.381Z,7.74
2022-09-28T02:49:10.621Z,7.68
2022-09-28T02:51:46.106Z,7.71
2022-09-28T02:54:34.742Z,7.68
2022-09-28T02:57:27.429Z,7.64
2022-09-28T03:00:05.604Z,7.62
2022-09-28T03:03:09.243Z,7.55
2022-09-28T03:05:47.768Z,7.50
2022-09-28T03:08:23.195Z,7.44
2022-09-28T03:10:59.019Z,7.44
2022-09-28T03:13:29.156Z,7.43
2022-09-28T03:16:09.866Z,7.37
2022-09-28T03:18:39.780Z,7.34
2022-09-28T03:21:10.627Z,7.36
2022-09-28T03:23:40.932Z,7.39
2022-09-28T03:26:12.801Z,7.48
2022-09-28T03:28:42.372Z,7.51
2022-09-28T03:31:13.335Z,7.54
2022-09-28T03:33:42.560Z,7.63
2022-09-28T03:36:12.026Z,7.68
2022-09-28T03:38:41.501Z,7.71
2022-09-28T03:41:12.141Z,7.69
2022-09-28T03:43:43.039Z,7.72
2022-09-28T03:46:14.146Z,7.71
2022-09-28T03:48:45.181Z,7.73
2022-09-28T03:51:14.997Z,7.75
2022-09-28T03:53:44.217Z,7.81
2022-09-28T03:56:15.677Z,7.78
2022-09-28T03:58:44.898Z,7.77
2022-09-28T04:01:18.502Z,7.75
2022-09-28T04:03:48.861Z,7.70
2022-09-28T04:06:18.216Z,7.60
2022-09-28T04:08:47.693Z,7.54
2022-09-28T04:11:17.192Z,7.48
2022-09-28T04:13:50.174Z,7.41
2022-09-28T04:16:19.921Z,7.35
2022-09-28T04:19:09.347Z,7.30
2022-09-28T04:21:51.554Z,7.33
2022-09-28T04:24:21.400Z,7.35
2022-09-28T04:26:50.674Z,7.35
2022-09-28T04:29:21.110Z,7.29
2022-09-28T04:31:53.820Z,7.24
2022-09-28T04:34:24.278Z,7.24
2022-09-28T04:36:53.402Z,7.24
2022-09-28T04:39:22.605Z,7.25
2022-09-28T04:41:53.566Z,7.30
2022-09-28T04:44:22.884Z,7.22
2022-09-28T04:46:55.638Z,7.15
2022-09-28T04:49:29.547Z,7.12
2022-09-28T04:52:00.468Z,7.12
2022-09-28T04:54:29.854Z,7.12
2022-09-28T04:56:59.531Z,7.10
2022-09-28T04:59:28.824Z,7.08
2022-09-28T05:01:58.459Z,7.17
2022-09-28T05:04:32.374Z,7.18
2022-09-28T05:07:15.457Z,7.24
2022-09-28T05:09:45.267Z,7.20
2022-09-28T05:12:14.544Z,7.22
2022-09-28T05:14:44.148Z,7.23
2022-09-28T05:17:13.346Z,7.33
2022-09-28T05:20:00.852Z,7.35
2022-09-28T05:22:30.361Z,7.38
2022-09-28T05:25:00.608Z,7.42
2022-09-28T05:27:31.617Z,7.46
2022-09-28T05:30:02.672Z,7.38
2022-09-28T05:32:51.950Z,7.31
2022-09-28T05:35:23.129Z,7.33
2022-09-28T05:37:52.598Z,7.33
2022-09-28T05:40:23.281Z,7.33
2022-09-28T05:42:52.517Z,7.37
2022-09-28T05:45:22.752Z,7.38
2022-09-28T05:47:52.461Z,7.38
2022-09-28T05:50:23.547Z,7.43
2022-09-28T05:53:03.627Z,7.44
2022-09-28T05:55:33.590Z,7.46
2022-09-28T05:58:05.876Z,7.53
2022-09-28T06:00:37.147Z,7.63
2022-09-28T06:03:09.644Z,7.64
2022-09-28T06:05:39.774Z,7.68
2022-09-28T06:08:14.017Z,7.70
2022-09-28T06:10:44.949Z,7.73
2022-09-28T06:13:15.494Z,7.75
2022-09-28T06:15:46.447Z,7.76
2022-09-28T06:18:16.422Z,7.76
2022-09-28T06:21:05.775Z,7.80
2022-09-28T06:23:36.943Z,7.90
2022-09-28T06:26:07.467Z,7.93
2022-09-28T06:28:37.535Z,7.86
2022-09-28T06:31:07.628Z,8.03
2022-09-28T06:33:40.146Z,8.15
2022-09-28T06:36:10.986Z,8.34
2022-09-28T06:38:40.721Z,8.53
2022-09-28T06:41:11.236Z,8.63
2022-09-28T06:43:42.287Z,8.59
2022-09-28T06:46:16.432Z,8.59
2022-09-28T06:48:54.353Z,8.57
2022-09-28T06:51:38.016Z,8.59
2022-09-28T06:54:22.740Z,8.56
2022-09-28T06:56:54.673Z,8.50
2022-09-28T06:59:24.162Z,8.57
2022-09-28T07:01:54.617Z,8.57
2022-09-28T07:04:25.707Z,8.66
2022-09-28T07:07:12.822Z,8.63
2022-09-28T07:09:55.507Z,8.69
2022-09-28T07:12:32.293Z,8.74
2022-09-28T07:15:03.978Z,8.77
2022-09-28T07:17:42.497Z,8.79
2022-09-28T07:20:17.029Z,8.78
2022-09-28T07:22:43.333Z,8.83
2022-09-28T07:25:12.350Z,8.73
2022-09-28T07:28:00.943Z,8.62
2022-09-28T07:30:48.305Z,8.60
2022-09-28T07:33:35.490Z,8.68
2022-09-28T07:36:12.233Z,8.81
2022-09-28T07:38:41.911Z,8.88
2022-09-28T07:41:15.843Z,9.01
2022-09-28T07:43:48.409Z,9.08
2022-09-28T07:46:17.750Z,9.17
2022-09-28T07:48:51.484Z,9.26
2022-09-28T07:51:22.417Z,9.34
2022-09-28T07:53:59.176Z,9.38
2022-09-28T07:56:42.216Z,9.55
2022-09-28T07:59:19.576Z,9.68
2022-09-28T08:01:56.722Z,9.77
2022-09-28T08:04:26.248Z,9.83
2022-09-28T08:06:55.542Z,9.96
2022-09-28T08:09:25.193Z,10.06
2022-09-28T08:12:08.331Z,10.22
2022-09-28T08:14:40.058Z,10.42
2022-09-28T08:17:19.822Z,10.53
2022-09-28T08:20:08.446Z,10.68
2022-09-28T08:22:38.705Z,10.79
2022-09-28T08:25:08.914Z,10.95
2022-09-28T08:27:38.291Z,11.15
2022-09-28T08:30:08.957Z,11.14
2022-09-28T08:32:52.142Z,11.28
2022-09-28T08:35:24.777Z,11.39
2022-09-28T08:38:11.958Z,11.59
2022-09-28T08:41:10.070Z,11.95
2022-09-28T08:43:50.226Z,11.89
2022-09-28T08:46:25.185Z,12.00
2022-09-28T08:49:25.509Z,12.00
2022-09-28T08:52:13.555Z,12.16
2022-09-28T08:54:49.928Z,12.79
2022-09-28T08:57:30.381Z,13.49
2022-09-28T09:00:01.039Z,14.08
2022-09-28T09:02:36.268Z,15.20
2022-09-28T09:05:15.691Z,15.96
2022-09-28T09:08:07.629Z,17.38
2022-09-28T09:10:47.143Z,17.32
2022-09-28T09:13:39.353Z,17.95
2022-09-28T09:16:21.327Z,18.04
2022-09-28T09:19:36.120Z,17.93
2022-09-28T09:22:16.104Z,16.42
2022-09-28T09:24:48.582Z,17.50
2022-09-28T09:27:39.503Z,16.86
2022-09-28T09:30:19.887Z,17.39
2022-09-28T09:33:17.145Z,17.47
2022-09-28T09:36:06.406Z,17.33
2022-09-28T09:38:46.688Z,17.21
2022-09-28T09:41:53.864Z,17.92
2022-09-28T09:44:55.502Z,18.36
2022-09-28T09:47:29.765Z,18.30
2022-09-28T09:50:08.464Z,17.20
2022-09-28T09:52:44.500Z,17.73
2022-09-28T09:55:29.682Z,16.88
2022-09-28T09:58:12.179Z,17.65
2022-09-28T10:00:48.033Z,16.65
2022-09-28T10:03:30.013Z,16.48
2022-09-28T10:06:09.871Z,16.49
2022-09-28T10:08:42.160Z,15.99
2022-09-28T10:11:16.422Z,16.61
2022-09-28T10:13:49.474Z,18.63
2022-09-28T10:16:26.235Z,18.42
2022-09-28T10:18:57.383Z,18.03
2022-09-28T10:21:41.472Z,17.57
2022-09-28T10:24:30.800Z,18.33
2022-09-28T10:27:08.895Z,19.24
2022-09-28T10:29:57.329Z,18.98
2022-09-28T10:32:46.507Z,17.63
2022-09-28T10:35:19.127Z,17.25
2022-09-28T10:38:07.522Z,18.80
2022-09-28T10:41:01.955Z,17.10
2022-09-28T10:44:08.774Z,16.52
2022-09-28T10:46:40.601Z,15.86
2022-09-28T10:49:18.728Z,16.19
2022-09-28T10:51:59.155Z,16.18
2022-09-28T10:54:31.774Z,17.28
2022-09-28T10:57:02.272Z,18.00
2022-09-28T10:59:43.067Z,19.05
2022-09-28T11:02:32.393Z,18.93
2022-09-28T11:05:04.563Z,19.72
2022-09-28T11:07:38.946Z,20.16
2022-09-28T11:10:12.355Z,20.31
2022-09-28T11:12:44.089Z,20.58
2022-09-28T11:15:18.889Z,19.58
2022-09-28T11:17:48.502Z,19.32
2022-09-28T11:20:29.180Z,19.70
2022-09-28T11:23:03.598Z,19.87
2022-09-28T11:25:34.591Z,20.06
2022-09-28T11:28:04.916Z,19.38
2022-09-28T11:30:52.126Z,18.80
2022-09-28T11:33:44.891Z,17.02
2022-09-28T11:36:39.859Z,15.75
2022-09-28T11:39:30.592Z,16.10
2022-09-28T11:42:16.389Z,17.28
2022-09-28T11:44:47.054Z,15.81
2022-09-28T11:47:44.420Z,16.65
2022-09-28T11:50:29.065Z,16.79
2022-09-28T11:53:13.433Z,14.92
2022-09-28T11:55:50.129Z,13.72
2022-09-28T11:58:40.550Z,13.57
2022-09-28T12:01:34.642Z,14.79
2022-09-28T12:04:11.819Z,15.44
2022-09-28T12:06:47.342Z,16.68
2022-09-28T12:09:20.960Z,16.91
2022-09-28T12:12:01.781Z,16.81
2022-09-28T12:14:47.128Z,15.89
2022-09-28T12:17:24.694Z,15.68
2022-09-28T12:20:06.019Z,16.25
2022-09-28T12:22:41.299Z,16.97
2022-09-28T12:25:13.992Z,16.02
2022-09-28T12:27:52.031Z,15.94
2022-09-28T12:30:24.676Z,16.58
2022-09-28T12:33:09.363Z,15.77
2022-09-28T12:35:53.596Z,15.76
2022-09-28T12:38:42.518Z,15.72
2022-09-28T12:41:16.730Z,15.41
2022-09-28T12:44:16.519Z,15.81
2022-09-28T12:47:22.861Z,16.13
2022-09-28T12:52:58.150Z,16.19
2022-09-28T12:55:55.497Z,15.45
2022-09-28T12:59:01.143Z,15.95
2022-09-28T13:01:42.144Z,15.62
2022-09-28T13:04:26.079Z,15.69
2022-09-28T13:07:13.632Z,14.90
2022-09-28T13:09:55.355Z,14.48
2022-09-28T13:12:27.448Z,14.14
2022-09-28T13:15:12.317Z,14.30
2022-09-28T13:17:44.699Z,14.71
2022-09-28T13:20:32.408Z,15.77
2022-09-28T13:23:07.933Z,16.12
2022-09-28T13:25:37.771Z,15.21
2022-09-28T13:28:07.498Z,14.95
2022-09-28T13:30:37.713Z,14.83
2022-09-28T13:33:08.517Z,14.42
2022-09-28T13:35:41.006Z,14.26
2022-09-28T13:38:22.714Z,13.61
2022-09-28T13:41:10.634Z,13.32
2022-09-28T13:43:59.487Z,13.18
2022-09-28T13:46:47.227Z,12.98
2022-09-28T13:49:25.709Z,13.09
2022-09-28T13:52:06.585Z,13.19
2022-09-28T13:54:41.661Z,13.38
2022-09-28T13:57:34.290Z,13.21
2022-09-28T14:00:18.388Z,13.32
2022-09-28T14:03:25.668Z,13.14
2022-09-28T14:06:10.888Z,13.27
2022-09-28T14:09:01.476Z,13.09
2022-09-28T14:11:36.796Z,13.15
2022-09-28T14:14:13.928Z,13.67
2022-09-28T14:16:43.573Z,13.77
2022-09-28T14:19:25.225Z,13.94
2022-09-28T14:22:06.603Z,13.82
2022-09-28T14:24:55.519Z,14.17
2022-09-28T14:27:40.346Z,14.51
2022-09-28T14:30:15.705Z,14.44
2022-09-28T14:32:51.246Z,14.04
2022-09-28T14:35:31.284Z,13.92
2022-09-28T14:38:21.658Z,13.11
2022-09-28T14:41:13.705Z,12.81
2022-09-28T14:43:49.456Z,12.49
2022-09-28T14:46:21.894Z,12.19
2022-09-28T14:49:09.070Z,12.02
2022-09-28T14:51:57.377Z,11.89
2022-09-28T14:54:28.786Z,11.85
2022-09-28T14:57:10.409Z,11.93
2022-09-28T14:59:46.203Z,12.02
2022-09-28T15:02:24.302Z,12.17
2022-09-28T15:05:02.694Z,12.15
2022-09-28T15:07:50.673Z,11.80
2022-09-28T15:10:30.814Z,11.84
2022-09-28T15:13:04.479Z,11.71
2022-09-28T15:15:40.058Z,11.72
2022-09-28T15:18:21.454Z,12.03
2022-09-28T15:20:51.027Z,12.40
2022-09-28T15:23:29.523Z,12.59
2022-09-28T15:25:59.152Z,12.52
2022-09-28T15:28:28.411Z,12.87
2022-09-28T15:31:01.894Z,12.56
2022-09-28T15:33:51.868Z,12.57
2022-09-28T15:36:30.007Z,12.73
2022-09-28T15:39:04.735Z,12.63
2022-09-28T15:41:35.134Z,12.62
2022-09-28T15:44:24.061Z,12.38
2022-09-28T15:46:58.102Z,12.09
2022-09-28T15:49:39.231Z,12.16
2022-09-28T15:52:11.158Z,12.26
2022-09-28T15:54:44.981Z,12.26
2022-09-28T15:57:29.440Z,12.19
2022-09-28T15:59:59.511Z,12.05
2022-09-28T16:02:29.260Z,11.99
2022-09-28T16:05:01.020Z,11.98
2022-09-28T16:07:39.461Z,11.90
2022-09-28T16:10:15.398Z,11.89
2022-09-28T16:12:50.622Z,11.86
2022-09-28T16:15:23.167Z,11.75
2022-09-28T16:18:03.315Z,11.69
2022-09-28T16:20:38.086Z,11.69
2022-09-28T16:23:10.108Z,11.57
2022-09-28T16:25:39.663Z,11.45
2022-09-28T16:28:12.036Z,11.49
2022-09-28T16:30:44.478Z,11.47
2022-09-28T16:33:32.395Z,11.40
2022-09-28T16:36:03.429Z,11.42
2022-09-28T16:38:32.699Z,11.33
2022-09-28T16:41:02.898Z,11.31
2022-09-28T16:43:34.997Z,11.24
2022-09-28T16:46:09.891Z,11.14
2022-09-28T16:48:51.158Z,11.04
2022-09-28T16:51:22.640Z,11.06
2022-09-28T16:54:10.238Z,10.99
2022-09-28T16:56:39.573Z,10.96
2022-09-28T16:59:13.596Z,10.87
2022-09-28T17:01:43.497Z,10.82
2022-09-28T17:04:12.904Z,10.72
2022-09-28T17:06:43.513Z,10.68
2022-09-28T17:09:15.897Z,10.57
2022-09-28T17:11:45.225Z,10.52
2022-09-28T17:14:14.543Z,10.46
2022-09-28T17:19:21.164Z,10.35
2022-09-28T17:21:51.568Z,10.31
2022-09-28T17:24:21.262Z,10.27
2022-09-28T17:26:51.933Z,10.25
2022-09-28T17:29:21.335Z,10.23
2022-09-28T17:31:50.635Z,10.25
2022-09-28T17:34:20.643Z,10.13
2022-09-28T17:36:50.174Z,10.09
2022-09-28T17:39:20.240Z,9.96
2022-09-28T17:41:49.999Z,9.85
2022-09-28T17:44:20.574Z,9.81
2022-09-28T17:46:50.997Z,9.73
2022-09-28T17:49:20.264Z,9.72
2022-09-28T17:51:50.295Z,9.74
2022-09-28T17:54:21.156Z,9.74
2022-09-28T17:56:50.757Z,9.76
2022-09-28T17:59:20.112Z,9.75
2022-09-28T18:01:49.527Z,9.68
2022-09-28T18:04:47.109Z,9.64
2022-09-28T18:06:51.091Z,9.58
2022-09-28T18:09:22.089Z,9.53
2022-09-28T18:11:52.955Z,9.54
2022-09-28T18:14:22.673Z,9.57
2022-09-28T18:16:52.142Z,9.53
2022-09-28T18:19:21.441Z,9.47
2022-09-28T18:21:50.767Z,9.41
2022-09-28T18:24:20.314Z,9.34
2022-09-28T18:26:49.628Z,9.28
2022-09-28T18:29:19.285Z,9.19
2022-09-28T18:31:48.970Z,9.14
2022-09-28T18:34:18.562Z,9.08
2022-09-28T18:36:48.494Z,9.02
2022-09-28T18:39:17.959Z,8.98
2022-09-28T18:41:47.200Z,8.94
2022-09-28T18:44:16.545Z,8.91
2022-09-28T18:46:46.145Z,8.88
2022-09-28T18:49:15.668Z,8.84
2022-09-28T18:51:44.883Z,8.77
2022-09-28T18:54:14.252Z,8.75
2022-09-28T18:56:43.736Z,8.71
2022-09-28T18:59:14.313Z,8.67
2022-09-28T19:01:44.689Z,8.69
2022-09-28T19:04:14.148Z,8.63
2022-09-28T19:06:44.879Z,8.60
2022-09-28T19:09:14.366Z,8.55
2022-09-28T19:11:43.804Z,8.52
2022-09-28T19:14:14.957Z,8.50
2022-09-28T19:16:45.707Z,8.47
2022-09-28T19:19:17.464Z,8.46
2022-09-28T19:21:47.709Z,8.46
2022-09-28T19:24:18.358Z,8.39
2022-09-28T19:26:47.723Z,8.40
2022-09-28T19:29:17.397Z,8.39
2022-09-28T19:31:47.052Z,8.35
2022-09-28T19:34:16.857Z,8.32
2022-09-28T19:36:46.556Z,8.31
2022-09-28T19:39:16.599Z,8.31
2022-09-28T19:41:53.050Z,8.30
2022-09-28T19:44:27.821Z,8.24
2022-09-28T19:47:03.884Z,8.19
2022-09-28T19:49:35.102Z,8.18
2022-09-28T19:52:13.338Z,8.18
2022-09-28T19:54:38.497Z,8.19
2022-09-28T19:57:11.542Z,8.15
2022-09-28T19:59:40.802Z,8.15
2022-09-28T20:02:11.985Z,8.17
2022-09-28T20:04:41.421Z,8.19
2022-09-28T20:07:10.802Z,8.19
2022-09-28T20:09:40.067Z,8.20
2022-09-28T20:12:09.623Z,8.17
2022-09-28T20:14:40.464Z,8.14
2022-09-28T20:17:11.051Z,8.10
2022-09-28T20:19:40.297Z,8.07
2022-09-28T20:22:09.719Z,8.02
2022-09-28T20:24:38.941Z,7.98
2022-09-28T20:27:08.785Z,7.93
2022-09-28T20:29:38.004Z,7.88
2022-09-28T20:32:08.998Z,7.85
2022-09-28T20:34:38.213Z,7.79
2022-09-28T20:37:07.520Z,7.76
2022-09-28T20:39:39.401Z,7.75
2022-09-28T20:42:08.761Z,7.74
2022-09-28T20:44:38.113Z,7.72
2022-09-28T20:47:07.596Z,7.72
2022-09-28T20:49:36.903Z,7.70
2022-09-28T20:52:06.292Z,7.71
2022-09-28T20:54:38.007Z,7.69
2022-09-28T20:57:09.019Z,7.68
2022-09-28T20:59:38.283Z,7.62
2022-09-28T21:02:08.984Z,7.58
2022-09-28T21:04:38.486Z,7.58
2022-09-28T21:07:08.161Z,7.57
2022-09-28T21:09:37.968Z,7.57
2022-09-28T21:12:08.930Z,7.59
2022-09-28T21:14:38.134Z,7.58
2022-09-28T21:17:07.354Z,7.58
2022-09-28T21:19:36.588Z,7.58
2022-09-28T21:22:06.919Z,7.59
2022-09-28T21:24:36.957Z,7.56
2022-09-28T21:27:06.218Z,7.49
2022-09-28T21:29:35.814Z,7.49
2022-09-28T21:32:06.088Z,7.51
2022-09-28T21:34:36.012Z,7.54
2022-09-28T21:37:05.323Z,7.52
2022-09-28T21:39:37.028Z,7.53
2022-09-28T21:42:06.398Z,7.51
2022-09-28T21:44:35.994Z,7.48
2022-09-28T21:47:05.436Z,7.49
2022-09-28T21:49:34.830Z,7.44
2022-09-28T21:52:04.033Z,7.38
2022-09-28T21:54:35.006Z,7.35
2022-09-28T21:57:04.721Z,7.35
2022-09-28T21:59:33.966Z,7.34
2022-09-28T22:02:04.925Z,7.32
2022-09-28T22:04:34.268Z,7.28
2022-09-28T22:07:05.347Z,7.26
2022-09-28T22:09:34.626Z,7.29
2022-09-28T22:12:03.996Z,7.26
2022-09-28T22:14:33.514Z,7.25
2022-09-28T22:17:02.811Z,7.24
2022-09-28T22:19:32.287Z,7.22
2022-09-28T22:22:01.618Z,7.17
2022-09-28T22:24:30.839Z,7.16
2022-09-28T22:27:00.147Z,7.18
2022-09-28T22:29:29.438Z,7.18
2022-09-28T22:32:00.326Z,7.13
2022-09-28T22:34:31.664Z,7.13
2022-09-28T22:37:03.042Z,7.11
2022-09-28T22:39:37.475Z,7.07
2022-09-28T22:42:04.629Z,7.03
2022-09-28T22:44:35.752Z,7.00
2022-09-28T22:47:05.346Z,6.99
2022-09-28T22:49:34.551Z,6.97
2022-09-28T22:52:03.887Z,6.95
2022-09-28T22:54:33.090Z,6.96
2022-09-28T22:57:02.338Z,6.96
2022-09-28T22:59:31.541Z,6.94
2022-09-28T23:02:00.954Z,6.94
2022-09-28T23:04:31.853Z,6.94
2022-09-28T23:07:01.230Z,6.94
2022-09-28T23:09:30.440Z,6.93
2022-09-28T23:11:59.676Z,6.93
2022-09-28T23:14:28.975Z,6.92
2022-09-28T23:16:58.195Z,6.91
2022-09-28T23:19:27.534Z,6.92
2022-09-28T23:21:58.396Z,6.94
2022-09-28T23:24:27.651Z,6.90
2022-09-28T23:26:57.006Z,6.90
2022-09-28T23:29:26.328Z,6.86
2022-09-28T23:31:55.542Z,6.83
2022-09-28T23:34:24.928Z,6.79
2022-09-28T23:36:54.959Z,6.82
2022-09-28T23:39:24.193Z,6.82
2022-09-28T23:41:53.542Z,6.83
2022-09-28T23:44:22.740Z,6.82
2022-09-28T23:46:52.286Z,6.79
2022-09-28T23:49:21.625Z,6.80
2022-09-28T23:51:50.933Z,6.76
2022-09-28T23:54:20.167Z,6.76
2022-09-28T23:56:49.448Z,6.72
2022-09-28T23:59:18.799Z,6.69
